Time;durP1;ratioP1;P1;durP2;ratioP2;P2;SDS_P1;SDS_P2;PMS_P1;PMS_P2;Temp;Humidity;BMP_temperature;BMP_pressure;BME280_temperature;BME280_humidity;BME280_pressure;Samples;Min_cycle;Max_cycle;Signal;HPM_P1;HPM_P2
2022/12/04 00:02:04;;;;;;;46.85;19.10;;;;;;;-0.27;85.54;101986.69;6281183;22;20074;-78
2022/12/04 00:04:31;;;;;;;49.05;20.83;;;;;;;-0.29;85.70;101987.00;6281493;22;20446;-80
2022/12/04 00:06:58;;;;;;;45.90;20.40;;;;;;;-0.30;85.85;101987.34;6281795;22;20017;-77
2022/12/04 00:09:24;;;;;;;39.17;17.55;;;;;;;-0.33;85.64;101988.78;6281177;22;20095;-77
2022/12/04 00:11:51;;;;;;;49.67;20.13;;;;;;;-0.34;85.77;101985.41;6281566;22;20012;-77
2022/12/04 00:14:17;;;;;;;44.42;19.35;;;;;;;-0.31;86.15;101983.22;6280556;22;20063;-78
2022/12/04 00:16:44;;;;;;;47.22;18.60;;;;;;;-0.29;86.26;101984.41;6281401;22;20026;-77
2022/12/04 00:19:10;;;;;;;45.15;19.42;;;;;;;-0.30;85.79;101984.72;6281098;22;20349;-78
2022/12/04 00:21:37;;;;;;;49.25;19.80;;;;;;;-0.30;85.82;101984.72;6281532;22;20047;-78
2022/12/04 00:24:04;;;;;;;43.42;19.08;;;;;;;-0.30;86.16;101976.88;6280913;22;20047;-77
2022/12/04 00:26:30;;;;;;;46.60;20.08;;;;;;;-0.29;86.01;101970.56;6281577;22;20040;-77
2022/12/04 00:28:57;;;;;;;49.95;20.10;;;;;;;-0.28;85.90;101967.59;6280985;22;20016;-77
2022/12/04 00:31:26;;;;;;;41.08;18.83;;;;;;;-0.29;86.02;101958.22;6280964;22;20124;-77
2022/12/04 00:33:53;;;;;;;48.17;20.17;;;;;;;-0.30;86.17;101961.94;6281296;22;20039;-78
2022/12/04 00:36:22;;;;;;;43.30;19.92;;;;;;;-0.30;85.81;101966.41;6281121;22;20446;-78
2022/12/04 00:38:49;;;;;;;45.90;19.52;;;;;;;-0.32;86.42;101964.13;6281035;22;20034;-78
2022/12/04 00:41:18;;;;;;;46.95;20.55;;;;;;;-0.30;86.15;101956.72;6281092;22;20051;-77
2022/12/04 00:43:44;;;;;;;52.95;19.98;;;;;;;-0.30;86.30;101958.56;6253192;22;20021;-78
2022/12/04 00:46:11;;;;;;;38.58;18.15;;;;;;;-0.30;86.22;101961.94;6281090;22;20071;-77
2022/12/04 00:48:38;;;;;;;42.05;17.92;;;;;;;-0.30;86.32;101958.56;6281429;22;20078;-76
2022/12/04 00:51:08;;;;;;;46.25;19.02;;;;;;;-0.31;86.37;101959.66;6281256;22;20016;-77
2022/12/04 00:53:35;;;;;;;50.30;20.20;;;;;;;-0.31;86.60;101964.91;6281507;22;20031;-77
2022/12/04 00:56:10;;;;;;;44.90;19.80;;;;;;;-0.30;86.62;101963.78;6254143;22;20466;-77
2022/12/04 00:58:36;;;;;;;41.60;19.45;;;;;;;-0.28;86.63;101953.75;6281026;22;20095;-77
2022/12/04 01:01:06;;;;;;;45.25;19.60;;;;;;;-0.30;86.45;101956.72;6254133;22;20533;-79
2022/12/04 01:03:33;;;;;;;49.63;21.00;;;;;;;-0.29;86.70;101957.47;6281499;22;20016;-76
2022/12/04 01:06:03;;;;;;;46.90;18.38;;;;;;;-0.29;86.65;101954.84;6253886;22;20035;-76
2022/12/04 01:08:29;;;;;;;45.05;19.15;;;;;;;-0.30;86.44;101954.09;6254174;22;20012;-76
2022/12/04 01:10:56;;;;;;;42.08;17.55;;;;;;;-0.29;86.47;101952.22;6280604;22;20035;-79
2022/12/04 01:13:23;;;;;;;50.97;19.15;;;;;;;-0.30;86.62;101955.94;6280739;22;20389;-79
2022/12/04 01:15:51;;;;;;;41.95;18.38;;;;;;;-0.33;86.60;101954.75;6281185;22;20480;-79
2022/12/04 01:18:18;;;;;;;44.72;19.65;;;;;;;-0.34;86.83;101956.63;6280880;22;20036;-79
2022/12/04 01:20:50;;;;;;;46.25;20.50;;;;;;;-0.31;86.81;101955.19;6253900;22;20104;-78
2022/12/04 01:23:17;;;;;;;47.17;20.17;;;;;;;-0.31;87.01;101946.56;6253760;22;20047;-79
2022/12/04 01:25:55;;;;;;;45.13;21.02;;;;;;;-0.29;86.78;101952.22;6227837;22;20028;-78
2022/12/04 01:28:22;;;;;;;47.65;19.95;;;;;;;-0.29;86.97;101953.00;6280592;22;20016;-79
2022/12/04 01:30:56;;;;;;;51.20;19.00;;;;;;;-0.29;86.79;101952.22;6254204;22;20020;-78
2022/12/04 01:33:23;;;;;;;43.70;18.58;;;;;;;-0.30;87.08;101954.09;6253219;22;20834;-78
2022/12/04 01:35:54;;;;;;;48.22;20.20;;;;;;;-0.30;86.90;101948.84;6281213;22;20021;-76
2022/12/04 01:38:21;;;;;;;50.83;20.30;;;;;;;-0.28;86.97;101954.53;6280689;22;20016;-79
2022/12/04 01:40:48;;;;;;;49.88;20.58;;;;;;;-0.29;86.77;101947.00;6280415;22;20019;-78
2022/12/04 01:43:15;;;;;;;42.83;19.05;;;;;;;-0.29;86.89;101952.22;6280566;22;20012;-78
2022/12/04 01:45:44;;;;;;;50.42;20.65;;;;;;;-0.28;87.41;101940.66;6253200;22;20478;-78
2022/12/04 01:48:23;;;;;;;51.25;20.08;;;;;;;-0.30;87.13;101950.72;6253625;22;20472;-78
2022/12/04 01:50:52;;;;;;;46.83;18.75;;;;;;;-0.34;87.07;101951.38;6280864;22;20457;-78
2022/12/04 01:53:19;;;;;;;48.40;19.35;;;;;;;-0.31;87.05;101949.19;6280666;22;20046;-79
2022/12/04 01:55:47;;;;;;;49.58;21.33;;;;;;;-0.32;87.40;101947.66;6280306;22;20016;-79
2022/12/04 01:58:16;;;;;;;40.42;18.77;;;;;;;-0.32;87.36;101950.28;6253292;22;20550;-79
2022/12/04 02:00:43;;;;;;;47.88;20.38;;;;;;;-0.31;87.05;101963.03;6281056;22;20043;-78
2022/12/04 02:03:16;;;;;;;46.45;19.90;;;;;;;-0.30;87.22;101958.56;6280641;22;20019;-78
2022/12/04 02:05:43;;;;;;;47.70;19.80;;;;;;;-0.31;87.37;101954.44;6281077;22;20020;-78
2022/12/04 02:08:09;;;;;;;52.35;20.45;;;;;;;-0.29;87.29;101955.63;6280645;22;20170;-78
2022/12/04 02:10:52;;;;;;;43.20;18.52;;;;;;;-0.27;87.19;101955.28;6253300;22;20019;-78
2022/12/04 02:13:30;;;;;;;50.75;20.88;;;;;;;-0.28;87.23;101967.59;6280492;22;20066;-78
2022/12/04 02:16:12;;;;;;;49.65;19.83;;;;;;;-0.26;87.46;101959.41;6254020;22;20095;-78
2022/12/04 02:18:55;;;;;;;48.28;20.60;;;;;;;-0.28;87.33;101962.38;6280708;22;20016;-78
2022/12/04 02:21:39;;;;;;;43.67;19.45;;;;;;;-0.27;87.19;101960.50;6276907;22;20074;-76
2022/12/04 02:24:36;;;;;;;50.60;20.08;;;;;;;-0.28;87.27;101959.00;6250993;22;20505;-76
2022/12/04 02:27:26;;;;;;;43.83;19.58;;;;;;;-0.26;87.40;101962.03;6280730;22;20024;-76
2022/12/04 02:30:04;;;;;;;46.28;18.60;;;;;;;-0.25;87.37;101960.94;6280233;22;20142;-76
2022/12/04 02:32:42;;;;;;;41.03;19.35;;;;;;;-0.23;87.41;101961.38;6279746;22;20442;-77
2022/12/04 02:35:19;;;;;;;43.67;19.58;;;;;;;-0.26;87.39;101954.94;6253462;22;20104;-76
2022/12/04 02:37:52;;;;;;;45.97;19.88;;;;;;;-0.24;87.60;101960.59;6252766;22;20017;-76
2022/12/04 02:40:30;;;;;;;49.50;19.73;;;;;;;-0.24;87.42;101959.84;6280231;22;20078;-76
2022/12/04 02:43:06;;;;;;;48.92;20.92;;;;;;;-0.22;87.60;101947.19;6280378;22;20020;-77
2022/12/04 02:45:40;;;;;;;50.30;22.05;;;;;;;-0.22;87.75;101941.94;6280211;22;20016;-76
2022/12/04 02:48:07;;;;;;;44.20;20.23;;;;;;;-0.21;87.44;101959.19;6280265;22;20020;-78
2022/12/04 02:50:39;;;;;;;46.85;20.10;;;;;;;-0.21;87.53;101943.47;6280562;22;20016;-77
2022/12/04 02:53:23;;;;;;;49.85;21.00;;;;;;;-0.21;87.84;101948.72;6279420;22;20012;-76
2022/12/04 02:55:55;;;;;;;46.67;19.25;;;;;;;-0.23;87.71;101937.81;6252927;22;20016;-76
2022/12/04 02:58:41;;;;;;;50.83;21.42;;;;;;;-0.23;87.73;101929.97;6227179;22;20027;-76
2022/12/04 03:01:20;;;;;;;52.58;20.63;;;;;;;-0.23;87.71;101938.56;6280669;22;20047;-79
2022/12/04 03:04:04;;;;;;;52.80;21.25;;;;;;;-0.22;87.41;101940.09;6254375;22;20016;-77
2022/12/04 03:06:35;;;;;;;46.15;19.05;;;;;;;-0.22;87.80;101934.09;6281768;22;20398;-76
2022/12/04 03:09:09;;;;;;;43.25;20.83;;;;;;;-0.25;87.70;101932.91;6253734;22;20024;-77
2022/12/04 03:11:39;;;;;;;48.80;21.73;;;;;;;-0.26;87.94;101923.53;6281726;22;20454;-76
2022/12/04 03:14:23;;;;;;;49.05;21.90;;;;;;;-0.24;87.74;101925.81;6281468;22;20039;-76
2022/12/04 03:16:53;;;;;;;48.67;19.75;;;;;;;-0.25;87.86;101926.91;6281750;22;20017;-76
2022/12/04 03:19:25;;;;;;;47.85;20.60;;;;;;;-0.24;87.75;101921.34;6228588;22;20020;-76
2022/12/04 03:21:58;;;;;;;45.63;19.77;;;;;;;-0.25;88.17;101917.22;6254000;22;20017;-76
2022/12/04 03:24:58;;;;;;;46.15;19.63;;;;;;;-0.24;88.13;101923.97;6254246;22;20454;-76
2022/12/04 03:27:24;;;;;;;43.63;19.65;;;;;;;-0.24;87.94;101912.75;6230295;22;20017;-76
2022/12/04 03:30:02;;;;;;;46.70;20.65;;;;;;;-0.23;88.20;101917.63;6254752;22;20523;-76
2022/12/04 03:32:35;;;;;;;45.05;19.95;;;;;;;-0.21;88.41;101917.31;6281691;22;20012;-77
2022/12/04 03:35:36;;;;;;;50.72;21.38;;;;;;;-0.21;88.08;101907.59;6281703;22;20468;-77
2022/12/04 03:38:15;;;;;;;48.10;20.13;;;;;;;-0.19;88.26;101915.09;6281182;22;20450;-77
2022/12/04 03:41:12;;;;;;;48.58;20.73;;;;;;;-0.22;88.02;101908.69;6281758;22;20086;-77
2022/12/04 03:44:04;;;;;;;49.05;20.15;;;;;;;-0.26;88.22;101910.47;6281615;22;20092;-78
2022/12/04 03:46:39;;;;;;;42.28;19.90;;;;;;;-0.26;88.19;101910.47;6281641;22;20020;-76
2022/12/04 03:49:25;;;;;;;46.80;19.55;;;;;;;-0.24;88.57;101915.34;6281214;22;20416;-77
2022/12/04 03:52:03;;;;;;;52.95;20.52;;;;;;;-0.25;88.24;101916.44;6253785;22;20055;-76
2022/12/04 03:54:34;;;;;;;52.40;21.23;;;;;;;-0.26;88.51;101918.31;6254754;22;20046;-77
2022/12/04 03:57:11;;;;;;;48.63;20.67;;;;;;;-0.26;88.35;101920.16;6254113;22;20409;-77
2022/12/04 03:59:42;;;;;;;42.83;20.25;;;;;;;-0.26;88.44;101920.16;6281418;22;20024;-77
2022/12/04 04:02:13;;;;;;;43.95;19.55;;;;;;;-0.23;88.63;101919.50;6281126;22;20458;-77
2022/12/04 04:04:43;;;;;;;49.83;21.10;;;;;;;-0.23;89.07;101915.03;6281433;22;20070;-77
2022/12/04 04:07:14;;;;;;;44.38;18.55;;;;;;;-0.24;88.78;101923.19;6253964;22;20472;-77
2022/12/04 04:09:46;;;;;;;48.07;19.53;;;;;;;-0.26;88.74;101918.31;6281579;22;20894;-77
2022/12/04 04:12:18;;;;;;;44.28;20.63;;;;;;;-0.25;88.85;101917.22;6280660;22;20613;-77
2022/12/04 04:24:31;;;;;;;50.60;19.63;;;;;;;-0.24;88.88;101910.88;6253667;22;20532;-77
2022/12/04 04:26:33;;;;;;;56.88;20.02;;;;;;;-0.25;88.98;101911.97;6254036;22;20357;-77
2022/12/04 04:28:59;;;;;;;47.83;20.95;;;;;;;-0.24;88.96;101913.50;6254274;22;20012;-77
2022/12/04 04:31:47;;;;;;;45.17;20.80;;;;;;;-0.23;88.91;101915.03;6280955;22;20024;-77
2022/12/04 04:34:36;;;;;;;44.28;19.48;;;;;;;-0.25;89.17;101911.22;6280488;22;20020;-77
2022/12/04 04:37:24;;;;;;;52.72;21.27;;;;;;;-0.25;89.02;101906.75;6281466;22;20040;-77
2022/12/04 04:40:04;;;;;;;45.67;20.90;;;;;;;-0.25;89.32;101911.22;6281433;22;20066;-77
2022/12/04 04:42:42;;;;;;;57.15;23.02;;;;;;;-0.26;89.37;101907.84;6281355;22;20375;-77
2022/12/04 04:45:24;;;;;;;47.35;19.73;;;;;;;-0.26;89.46;101915.69;6280527;22;20326;-77
2022/12/04 04:47:50;;;;;;;;;;;;;;;-0.26;89.26;101909.69;6281978;22;20070;-77
2022/12/04 04:50:18;;;;;;;47.30;19.60;;;;;;;-0.25;89.22;101911.22;6280546;22;19991;-77
2022/12/04 04:52:49;;;;;;;49.70;21.55;;;;;;;-0.26;89.45;101915.69;6281372;22;20039;-77
2022/12/04 04:55:17;;;;;;;50.58;21.45;;;;;;;-0.26;89.34;101912.31;6280989;22;20394;-77
2022/12/04 04:57:43;;;;;;;45.38;20.50;;;;;;;-0.28;89.74;101910.03;6281231;22;20008;-77
2022/12/04 05:00:17;;;;;;;49.35;21.10;;;;;;;-0.26;89.81;101913.06;6280815;22;20464;-77
2022/12/04 05:02:44;;;;;;;51.13;19.95;;;;;;;-0.26;89.51;101907.06;6253852;22;20445;-77
2022/12/04 05:05:12;;;;;;;46.90;20.83;;;;;;;-0.30;89.65;101916.69;6280787;22;20017;-77
2022/12/04 05:07:38;;;;;;;48.15;21.67;;;;;;;-0.31;89.76;101912.56;6281295;22;20020;-77
2022/12/04 05:10:05;;;;;;;57.50;23.10;;;;;;;-0.29;89.61;101910.38;6280907;22;20023;-77
2022/12/04 05:12:32;;;;;;;54.80;22.15;;;;;;;-0.30;89.84;101912.22;6281035;22;20043;-77
2022/12/04 05:14:58;;;;;;;46.25;18.70;;;;;;;-0.30;89.64;101914.06;6281101;22;20417;-76
2022/12/04 05:17:25;;;;;;;49.88;21.10;;;;;;;-0.30;89.98;101914.84;6280250;22;20023;-77
2022/12/04 05:19:57;;;;;;;47.65;21.23;;;;;;;-0.28;90.32;101917.88;6281146;22;20020;-77
2022/12/04 05:22:35;;;;;;;53.40;22.70;;;;;;;-0.28;89.94;101915.25;6280773;22;20040;-76
2022/12/04 05:25:03;;;;;;;55.38;23.80;;;;;;;-0.27;90.10;101921.25;6280886;22;20086;-76
2022/12/04 05:27:29;;;;;;;46.20;20.58;;;;;;;-0.30;89.91;101912.22;6254005;22;20040;-76
2022/12/04 05:29:57;;;;;;;48.25;20.80;;;;;;;-0.29;89.89;101920.84;6280925;22;20377;-76
2022/12/04 05:32:26;;;;;;;45.90;19.00;;;;;;;-0.30;89.81;101925.31;6280178;22;20239;-77
2022/12/04 05:34:54;;;;;;;47.80;18.17;;;;;;;-0.29;89.89;101931.31;6281153;22;20022;-77
2022/12/04 05:37:22;;;;;;;51.20;20.38;;;;;;;-0.30;89.91;101920.06;6253735;22;20013;-77
2022/12/04 05:39:48;;;;;;;46.28;19.60;;;;;;;-0.31;89.75;101925.63;6253547;22;20446;-77
2022/12/04 05:42:15;;;;;;;45.33;21.20;;;;;;;-0.31;90.02;101933.50;6280843;22;20046;-77
2022/12/04 05:44:41;;;;;;;61.50;23.35;;;;;;;-0.32;89.81;101924.88;6253372;22;20024;-77
2022/12/04 05:47:08;;;;;;;51.40;20.73;;;;;;;-0.30;90.16;101927.16;6252484;22;20024;-77
2022/12/04 05:49:35;;;;;;;41.33;19.30;;;;;;;-0.31;89.96;101928.25;6280811;22;20413;-76
2022/12/04 05:52:03;;;;;;;46.53;20.02;;;;;;;-0.31;89.81;101925.63;6280897;22;20016;-76
2022/12/04 05:54:29;;;;;;;51.83;22.63;;;;;;;-0.31;89.69;101920.41;6253882;22;20019;-77
2022/12/04 05:56:56;;;;;;;51.70;22.20;;;;;;;-0.28;89.87;101924.97;6253422;22;20476;-76
2022/12/04 05:59:22;;;;;;;46.00;20.50;;;;;;;-0.27;89.63;101929.88;6280605;22;20464;-78
2022/12/04 06:01:49;;;;;;;46.00;20.27;;;;;;;-0.29;89.65;101920.84;6253255;22;20043;-78
2022/12/04 06:04:16;;;;;;;35.70;16.50;;;;;;;-0.30;89.73;101916.69;6253329;22;20357;-78
2022/12/04 06:06:42;;;;;;;49.10;20.17;;;;;;;-0.29;89.88;101910.38;6280817;22;20016;-78
2022/12/04 06:09:10;;;;;;;53.55;21.55;;;;;;;-0.28;90.00;101906.66;6252900;22;20387;-78
2022/12/04 06:11:39;;;;;;;57.40;22.40;;;;;;;-0.28;90.03;101912.66;6253174;22;20438;-78
2022/12/04 06:14:07;;;;;;;46.28;19.60;;;;;;;-0.29;89.78;101910.38;6280280;22;20016;-78
2022/12/04 06:16:37;;;;;;;52.38;21.88;;;;;;;-0.29;90.05;101913.75;6280379;22;20084;-78
2022/12/04 06:19:07;;;;;;;43.65;19.17;;;;;;;-0.28;89.98;101919.75;6280308;22;20012;-78
2022/12/04 06:21:36;;;;;;;50.38;19.88;;;;;;;-0.31;89.86;101912.56;6281016;22;20035;-78
2022/12/04 06:24:04;;;;;;;50.50;19.70;;;;;;;-0.29;89.84;101918.97;6280740;22;20047;-78
2022/12/04 06:26:30;;;;;;;48.42;20.02;;;;;;;-0.28;89.92;101919.75;6280581;22;20835;-78
2022/12/04 06:28:58;;;;;;;44.03;19.92;;;;;;;-0.28;89.87;101915.25;6280522;22;20434;-78
2022/12/04 06:31:27;;;;;;;40.15;19.25;;;;;;;-0.28;89.68;101925.72;6279640;22;20012;-78
2022/12/04 06:33:54;;;;;;;39.70;19.98;;;;;;;-0.27;90.09;101913.41;6253347;22;20016;-78
2022/12/04 06:36:22;;;;;;;53.58;21.20;;;;;;;-0.27;90.13;101914.16;6281063;22;20012;-78
2022/12/04 06:38:50;;;;;;;45.88;19.55;;;;;;;-0.26;89.86;101930.63;6281903;22;20016;-78
2022/12/04 06:41:18;;;;;;;45.90;19.88;;;;;;;-0.25;90.06;101919.81;6281449;22;20032;-78
2022/12/04 06:43:45;;;;;;;45.17;20.10;;;;;;;-0.24;89.74;101923.19;6281302;22;20044;-77
2022/12/04 06:46:14;;;;;;;44.08;19.80;;;;;;;-0.24;90.05;101921.34;6280590;22;20059;-78
2022/12/04 06:48:41;;;;;;;45.22;19.27;;;;;;;-0.24;89.75;101931.81;6281852;22;20016;-78
2022/12/04 06:51:14;;;;;;;43.78;20.67;;;;;;;-0.24;90.31;101920.59;6281469;22;20047;-78
2022/12/04 06:53:41;;;;;;;42.33;18.17;;;;;;;-0.24;89.77;101920.59;6281932;22;20066;-78
2022/12/04 06:56:11;;;;;;;49.30;19.55;;;;;;;-0.23;90.06;101922.09;6254436;22;20012;-78
2022/12/04 06:58:38;;;;;;;49.95;19.48;;;;;;;-0.22;90.10;101921.78;6282054;22;20020;-78
2022/12/04 07:01:10;;;;;;;44.50;20.55;;;;;;;-0.24;90.04;101926.59;6281063;22;20012;-78
2022/12/04 07:03:38;;;;;;;43.75;18.88;;;;;;;-0.23;89.92;101928.09;6281782;22;20024;-78
2022/12/04 07:06:13;;;;;;;52.13;20.67;;;;;;;-0.23;89.97;101920.25;6281359;22;20016;-78
2022/12/04 07:08:41;;;;;;;43.85;18.88;;;;;;;-0.24;89.92;101921.34;6281871;22;20016;-78
2022/12/04 07:11:08;;;;;;;49.35;20.65;;;;;;;-0.22;89.84;101921.78;6281364;22;20429;-78
2022/12/04 07:13:34;;;;;;;46.40;19.65;;;;;;;-0.24;90.19;101923.97;6253970;22;20103;-79
2022/12/04 07:16:02;;;;;;;50.30;20.48;;;;;;;-0.24;90.32;101923.19;6254594;22;20100;-79
2022/12/04 07:18:30;;;;;;;44.25;19.58;;;;;;;-0.23;89.97;101925.50;6282532;22;20032;-80
2022/12/04 07:20:57;;;;;;;49.92;19.70;;;;;;;-0.21;90.31;101930.38;6282469;22;20410;-78
2022/12/04 07:23:24;;;;;;;43.78;19.52;;;;;;;-0.21;90.23;101933.00;6282239;22;20020;-78
2022/12/04 07:25:50;;;;;;;47.22;20.38;;;;;;;-0.21;90.13;101939.00;6254686;22;20023;-79
2022/12/04 07:28:17;;;;;;;45.50;18.17;;;;;;;-0.21;90.18;101944.22;6281776;22;20012;-79
2022/12/04 07:30:43;;;;;;;53.53;20.13;;;;;;;-0.21;90.02;101933.00;6255278;22;20047;-78
2022/12/04 07:33:10;;;;;;;50.08;21.52;;;;;;;-0.19;90.26;101930.81;6282346;22;20023;-78
2022/12/04 07:35:36;;;;;;;46.53;20.08;;;;;;;-0.21;90.34;101922.53;6282345;22;20012;-77
2022/12/04 07:38:03;;;;;;;46.67;20.92;;;;;;;-0.21;90.37;101928.53;6255117;22;20392;-77
2022/12/04 07:40:29;;;;;;;48.33;20.42;;;;;;;-0.21;90.40;101925.91;6282388;22;20051;-78
2022/12/04 07:42:56;;;;;;;46.35;18.75;;;;;;;-0.20;90.50;101924.06;6281677;22;20024;-80
2022/12/04 07:45:22;;;;;;;45.33;20.30;;;;;;;-0.20;90.62;101934.53;6281648;22;20084;-78
2022/12/04 07:47:49;;;;;;;43.65;19.77;;;;;;;-0.20;90.69;101929.28;6282313;22;20043;-80
2022/12/04 07:50:15;;;;;;;48.70;20.38;;;;;;;-0.20;90.50;101939.75;6257398;22;20074;-83
2022/12/04 07:52:42;;;;;;;43.85;19.48;;;;;;;-0.19;90.43;101938.66;6259943;22;20039;-81
2022/12/04 07:55:08;;;;;;;44.38;20.95;;;;;;;-0.17;90.73;101933.84;6256249;22;20087;-78
2022/12/04 07:57:35;;;;;;;48.10;21.38;;;;;;;-0.16;90.82;101936.13;6282157;22;20023;-79
2022/12/04 08:00:02;;;;;;;43.38;19.85;;;;;;;-0.16;90.39;101945.84;6256342;22;20023;-83
2022/12/04 08:02:37;;;;;;;47.55;20.38;;;;;;;-0.16;90.73;101940.63;6258475;22;20031;-78
2022/12/04 08:05:04;;;;;;;46.47;19.48;;;;;;;-0.16;90.55;101949.22;6282368;22;20015;-80
2022/12/04 08:07:31;;;;;;;48.97;21.60;;;;;;;-0.15;90.60;101949.97;6282901;22;20016;-81
2022/12/04 08:09:57;;;;;;;45.50;19.88;;;;;;;-0.14;90.72;101947.03;6285596;22;20849;-80
2022/12/04 08:12:24;;;;;;;50.97;21.25;;;;;;;-0.14;90.53;101948.88;6254570;22;20004;-79
2022/12/04 08:14:50;;;;;;;41.53;19.23;;;;;;;-0.13;90.79;101950.41;6280955;22;20528;-78
2022/12/04 08:17:17;;;;;;;48.53;21.17;;;;;;;-0.12;91.07;101957.94;6253701;22;20016;-78
2022/12/04 08:19:43;;;;;;;47.13;20.67;;;;;;;-0.10;90.54;101958.34;6254146;22;20019;-78
2022/12/04 08:22:10;;;;;;;56.95;20.98;;;;;;;-0.08;90.58;101961.41;6281435;22;20536;-78
2022/12/04 08:24:36;;;;;;;50.60;21.33;;;;;;;-0.06;90.91;101953.97;6280376;22;20016;-78
2022/12/04 08:27:03;;;;;;;48.03;21.30;;;;;;;-0.05;90.64;101958.09;6253275;22;20477;-79
2022/12/04 08:29:29;;;;;;;47.45;21.30;;;;;;;-0.05;90.83;101960.72;6253869;22;20043;-79
2022/12/04 08:31:56;;;;;;;48.55;20.55;;;;;;;-0.03;90.60;101965.63;6281304;22;20016;-79
2022/12/04 08:34:22;;;;;;;44.50;20.80;;;;;;;-0.03;90.36;101963.78;6254252;22;20013;-79
2022/12/04 08:36:49;;;;;;;47.05;19.42;;;;;;;-0.05;90.47;101960.72;6253945;22;20090;-80
2022/12/04 08:39:15;;;;;;;47.13;21.45;;;;;;;-0.04;90.51;101961.50;6253573;22;20051;-80
2022/12/04 08:41:42;;;;;;;44.28;19.77;;;;;;;-0.02;90.73;101978.38;6280321;22;20043;-80
2022/12/04 08:44:09;;;;;;;46.65;20.42;;;;;;;0.02;90.59;101973.19;6280552;22;20458;-79
2022/12/04 08:46:35;;;;;;;44.28;19.55;;;;;;;0.02;90.50;101970.59;6280896;22;20079;-80
2022/12/04 08:49:02;;;;;;;45.38;20.40;;;;;;;0.03;90.35;101981.81;6280981;22;20106;-80
2022/12/04 08:51:31;;;;;;;43.55;20.30;;;;;;;0.03;90.63;101974.72;6253826;22;20454;-80
2022/12/04 08:53:59;;;;;;;42.28;19.48;;;;;;;0.02;90.29;101975.81;6281221;22;20399;-79
2022/12/04 08:56:28;;;;;;;40.40;18.95;;;;;;;0.03;90.35;101981.81;6253271;22;20016;-81
2022/12/04 08:58:56;;;;;;;44.90;18.73;;;;;;;0.01;90.52;101984.78;6280938;22;20012;-79
2022/12/04 09:01:24;;;;;;;44.25;19.20;;;;;;;0.04;90.76;101986.72;6281074;22;20092;-78
2022/12/04 09:03:51;;;;;;;44.55;19.98;;;;;;;0.04;91.00;101973.63;6253875;22;20035;-78
2022/12/04 09:06:17;;;;;;;43.67;18.73;;;;;;;0.05;90.77;101985.63;6281199;22;20086;-78
2022/12/04 09:08:44;;;;;;;46.03;19.42;;;;;;;0.06;91.21;101981.91;6253672;22;20097;-79
2022/12/04 09:11:13;;;;;;;44.53;19.40;;;;;;;0.04;91.21;101985.97;6280704;22;20112;-80
2022/12/04 09:13:40;;;;;;;46.22;18.92;;;;;;;0.02;91.65;101973.19;6280930;22;20015;-78
2022/12/04 09:16:10;;;;;;;47.80;20.17;;;;;;;0.00;91.68;101975.44;6279422;22;20043;-79
2022/12/04 09:18:37;;;;;;;40.20;19.27;;;;;;;0.03;91.69;101981.81;6280853;22;20019;-79
2022/12/04 09:21:07;;;;;;;43.53;19.00;;;;;;;0.04;91.81;101980.72;6281511;22;20444;-78
2022/12/04 09:23:35;;;;;;;51.20;19.23;;;;;;;0.06;92.05;101981.16;6253883;22;20133;-81
2022/12/04 09:26:02;;;;;;;42.63;18.88;;;;;;;0.07;92.21;101975.56;6253146;22;20406;-79
2022/12/04 09:28:29;;;;;;;45.97;19.35;;;;;;;0.06;92.33;101973.28;6253079;22;20020;-80
2022/12/04 09:31:01;;;;;;;48.50;18.33;;;;;;;0.05;92.31;101975.16;6280409;22;20425;-81
2022/12/04 09:33:29;;;;;;;;;;;;;;;0.04;92.45;101976.25;6228547;22;20457;-80
2022/12/04 09:36:00;;;;;;;38.20;16.95;;;;;;;0.06;92.67;101978.53;6281118;22;19991;-80
2022/12/04 09:38:27;;;;;;;48.78;20.50;;;;;;;0.06;92.64;101978.53;6280350;22;20086;-80
2022/12/04 09:41:29;;;;;;;39.85;17.38;;;;;;;0.10;92.95;101976.75;6281101;22;20020;-79
2022/12/04 09:44:05;;;;;;;37.90;17.23;;;;;;;0.12;93.17;101971.94;6280752;22;20013;-79
2022/12/04 09:46:39;;;;;;;40.53;18.25;;;;;;;0.11;93.14;101971.19;6279086;22;20016;-81
2022/12/04 09:49:40;;;;;;;45.45;17.38;;;;;;;0.13;93.35;101978.72;6280979;22;20071;-80
2022/12/04 09:52:35;;;;;;;23.80;12.50;;;;;;;0.09;93.12;101978.63;6250937;22;20040;-79
2022/12/04 09:55:03;;;;;;;42.25;17.55;;;;;;;0.10;93.58;101977.53;6280287;22;20012;-80
2022/12/04 09:57:47;;;;;;;53.40;18.20;;;;;;;0.11;93.22;101973.81;6280665;22;20012;-80
2022/12/04 10:00:16;;;;;;;44.15;17.88;;;;;;;0.11;93.57;101968.56;6280736;22;20024;-80
2022/12/04 10:03:11;;;;;;;36.67;16.25;;;;;;;0.11;93.32;101967.81;6278391;22;20296;-79
2022/12/04 10:06:05;;;;;;;42.55;18.00;;;;;;;0.09;93.34;101964.75;6280571;22;20023;-80
2022/12/04 10:08:38;;;;;;;38.50;18.20;;;;;;;0.09;93.57;101957.66;6279715;22;20020;-80
2022/12/04 10:11:16;;;;;;;34.75;16.80;;;;;;;0.12;93.31;101964.09;6252911;22;20130;-80
2022/12/04 10:13:48;;;;;;;34.55;16.08;;;;;;;0.10;92.94;101963.66;6253104;22;20016;-85
2022/12/04 10:16:27;;;;;;;37.05;15.80;;;;;;;0.09;92.57;101967.38;6254341;22;20020;-83
2022/12/04 10:19:07;;;;;;;36.97;16.45;;;;;;;0.10;92.80;101963.66;6253843;22;20452;-81
2022/12/04 10:21:47;;;;;;;34.95;13.93;;;;;;;0.13;92.82;101963.75;6228232;22;20040;-81
2022/12/04 10:24:27;;;;;;;34.38;14.43;;;;;;;0.14;92.24;101964.53;6254285;22;20047;-83
2022/12/04 10:26:57;;;;;;;31.35;13.98;;;;;;;0.14;92.04;101969.75;6253525;22;20048;-80
2022/12/04 10:29:31;;;;;;;35.47;13.73;;;;;;;0.17;91.66;101969.09;6253647;22;20028;-81
2022/12/04 10:32:12;;;;;;;37.30;14.80;;;;;;;0.18;91.66;101971.38;6253792;22;20012;-78
2022/12/04 10:34:39;;;;;;;36.33;16.30;;;;;;;0.20;91.63;101965.78;6280241;22;20092;-80
2022/12/04 10:37:12;;;;;;;31.05;14.10;;;;;;;0.21;91.10;101968.06;6280237;22;20017;-81
2022/12/04 10:39:50;;;;;;;34.60;14.93;;;;;;;0.20;90.83;101973.66;6280316;22;20016;-80
2022/12/04 10:42:43;;;;;;;27.33;12.98;;;;;;;0.19;90.78;101966.88;6253618;22;20016;-79
2022/12/04 10:45:11;;;;;;;26.13;12.52;;;;;;;0.21;90.37;101975.16;6280158;22;20146;-80
2022/12/04 10:47:43;;;;;;;26.88;10.88;;;;;;;0.18;90.00;101966.13;6279932;22;20096;-78
2022/12/04 10:50:19;;;;;;;29.35;13.88;;;;;;;0.20;90.08;101971.78;6280467;22;20019;-79
2022/12/04 10:52:46;;;;;;;25.00;12.13;;;;;;;0.22;89.95;101966.97;6279513;22;20009;-79
2022/12/04 10:55:12;;;;;;;29.63;12.32;;;;;;;0.21;89.89;101968.06;6280337;22;20020;-79
2022/12/04 10:57:45;;;;;;;28.73;12.38;;;;;;;0.21;89.81;101960.22;6279902;22;20357;-79
2022/12/04 11:00:33;;;;;;;25.38;12.82;;;;;;;0.21;89.84;101952.34;6253140;22;20043;-79
2022/12/04 11:03:07;;;;;;;28.08;13.07;;;;;;;0.24;89.83;101956.91;6281015;22;20019;-79
2022/12/04 11:05:44;;;;;;;28.58;12.57;;;;;;;0.27;89.69;101945.78;6279212;22;20052;-79
2022/12/04 11:08:37;;;;;;;30.33;13.45;;;;;;;0.29;89.85;101948.81;6280300;22;20089;-81
2022/12/04 11:11:10;;;;;;;26.80;12.27;;;;;;;0.31;89.60;101943.22;6275654;22;20036;-80
2022/12/04 11:13:37;;;;;;;30.08;13.95;;;;;;;0.31;89.71;101951.84;6278211;22;20474;-78
2022/12/04 11:16:05;;;;;;;21.15;11.25;;;;;;;0.30;89.63;101941.72;6280141;22;20469;-78
2022/12/04 11:18:44;;;;;;;26.05;11.43;;;;;;;0.31;89.18;101944.00;6279530;22;20012;-78
2022/12/04 11:21:26;;;;;;;23.27;10.82;;;;;;;0.32;89.46;101952.59;6279881;22;20039;-78
2022/12/04 11:23:53;;;;;;;23.55;11.90;;;;;;;0.35;89.52;101948.56;6255629;22;20023;-78
2022/12/04 11:26:32;;;;;;;23.80;11.23;;;;;;;0.35;89.01;101943.31;6282275;22;20070;-78
2022/12/04 11:29:00;;;;;;;23.35;10.63;;;;;;;0.33;88.97;101944.41;6254508;22;20027;-80
2022/12/04 11:31:28;;;;;;;25.15;12.18;;;;;;;0.36;88.96;101939.59;6228000;22;20012;-78
2022/12/04 11:34:01;;;;;;;28.40;13.00;;;;;;;0.36;88.90;101936.97;6254097;22;20031;-79
2022/12/04 11:36:33;;;;;;;23.50;12.95;;;;;;;0.35;88.73;101941.47;6253586;22;20087;-80
2022/12/04 11:39:12;;;;;;;19.33;10.05;;;;;;;0.39;88.77;101944.16;6281481;22;20020;-79
2022/12/04 11:41:39;;;;;;;23.30;11.57;;;;;;;0.39;88.82;101939.69;6254237;22;20032;-79